Time;durP1;ratioP1;P1;durP2;ratioP2;P2;SDS_P1;SDS_P2;PMS_P1;PMS_P2;Temp;Humidity;BMP_temperature;BMP_pressure;BME280_temperature;BME280_humidity;BME280_pressure;Samples;Min_cycle;Max_cycle;Signal;HPM_P1;HPM_P2
2023/03/22 00:02:13;;;;;;;0.65;0.65;;;12.20;99.90;;;;;;5031841;28;20497;-54
2023/03/22 00:04:40;;;;;;;0.10;0.10;;;12.30;99.90;;;;;;5021480;28;20036;-55
2023/03/22 00:07:06;;;;;;;0.10;0.10;;;12.30;99.90;;;;;;5024888;28;20076;-51
2023/03/22 00:09:32;;;;;;;0.47;0.30;;;12.30;99.90;;;;;;5020371;28;20127;-54
2023/03/22 00:11:57;;;;;;;0.22;0.22;;;12.20;99.90;;;;;;5025605;28;20029;-50
2023/03/22 00:14:23;;;;;;;4.60;0.30;;;12.30;99.90;;;;;;5032261;28;20163;-55
2023/03/22 00:16:49;;;;;;;0.20;0.20;;;12.30;99.90;;;;;;5030279;28;20042;-55
2023/03/22 00:19:16;;;;;;;3.92;0.38;;;12.20;99.90;;;;;;5029713;28;20021;-54
2023/03/22 00:21:41;;;;;;;0.20;0.20;;;12.20;99.90;;;;;;5025292;28;20478;-54
2023/03/22 00:24:07;;;;;;;0.68;0.50;;;12.20;99.90;;;;;;5032680;28;20045;-56
2023/03/22 00:26:33;;;;;;;0.13;0.13;;;12.20;99.90;;;;;;5007572;28;20037;-51
2023/03/22 00:28:59;;;;;;;1.38;0.98;;;12.20;99.90;;;;;;5028879;28;20045;-56
2023/03/22 00:31:25;;;;;;;0.17;0.17;;;12.20;99.90;;;;;;5022933;28;20032;-54
2023/03/22 00:33:51;;;;;;;0.17;0.17;;;12.20;99.90;;;;;;5030594;28;20029;-52
2023/03/22 00:36:16;;;;;;;0.10;0.10;;;12.20;99.90;;;;;;5054256;28;20042;-50
2023/03/22 00:38:42;;;;;;;0.10;0.10;;;12.20;99.90;;;;;;5029935;28;20021;-51
2023/03/22 00:41:19;;;;;;;0.22;0.22;;;12.10;99.90;;;;;;5036078;28;20034;-53
2023/03/22 00:43:46;;;;;;;1.55;0.40;;;12.10;99.90;;;;;;5022869;28;20482;-54
2023/03/22 00:46:13;;;;;;;1.05;0.38;;;12.10;99.90;;;;;;5022416;28;20431;-52
2023/03/22 00:48:40;;;;;;;0.30;0.30;;;12.10;99.90;;;;;;5026222;28;20125;-55
2023/03/22 00:51:07;;;;;;;0.38;0.38;;;12.10;99.90;;;;;;5024450;28;20033;-54
2023/03/22 00:53:35;;;;;;;0.75;0.75;;;12.10;99.90;;;;;;5031794;28;20021;-55
2023/03/22 00:56:01;;;;;;;0.93;0.45;;;12.20;99.90;;;;;;5025284;28;20041;-53
2023/03/22 00:58:26;;;;;;;0.57;0.57;;;12.30;99.90;;;;;;5025188;28;20046;-54
2023/03/22 01:00:52;;;;;;;0.10;0.10;;;12.20;99.90;;;;;;5029784;28;20065;-52
2023/03/22 01:03:20;;;;;;;0.73;0.73;;;12.20;99.90;;;;;;5018881;28;20037;-55
2023/03/22 01:05:48;;;;;;;1.77;1.05;;;12.20;99.90;;;;;;5011781;28;20048;-52
2023/03/22 01:08:15;;;;;;;0.50;0.50;;;12.20;99.90;;;;;;5023089;28;20484;-53
2023/03/22 01:10:42;;;;;;;0.20;0.20;;;12.20;99.90;;;;;;5022960;28;20124;-53
2023/03/22 01:13:09;;;;;;;0.25;0.25;;;12.30;99.90;;;;;;4998365;28;20042;-52
2023/03/22 01:15:35;;;;;;;0.32;0.32;;;12.30;99.90;;;;;;5017100;28;20041;-54
2023/03/22 01:18:01;;;;;;;0.20;0.20;;;12.30;99.90;;;;;;5012990;28;20033;-52
2023/03/22 01:20:27;;;;;;;0.25;0.25;;;12.20;99.90;;;;;;5018314;28;21257;-53
2023/03/22 01:22:53;;;;;;;0.13;0.13;;;12.20;99.90;;;;;;5013211;28;20082;-50
2023/03/22 01:25:19;;;;;;;0.10;0.10;;;12.20;99.90;;;;;;5000411;28;20379;-54
2023/03/22 01:27:45;;;;;;;0.20;0.20;;;12.20;99.90;;;;;;4999422;28;20069;-55
2023/03/22 01:30:11;;;;;;;0.10;0.10;;;12.20;99.90;;;;;;5031229;28;20516;-54
2023/03/22 01:32:37;;;;;;;0.45;0.43;;;12.10;99.90;;;;;;5040665;28;20029;-51
2023/03/22 01:35:04;;;;;;;0.10;0.10;;;12.10;99.90;;;;;;5033785;28;20025;-54
2023/03/22 01:37:31;;;;;;;0.47;0.45;;;12.20;99.90;;;;;;5026867;28;20041;-53
2023/03/22 01:39:57;;;;;;;0.30;0.20;;;12.20;99.90;;;;;;5026284;28;20022;-52
2023/03/22 01:42:24;;;;;;;0.65;0.65;;;12.20;99.90;;;;;;5027997;28;20045;-53
2023/03/22 01:45:12;;;;;;;0.20;0.20;;;12.30;99.90;;;;;;5045447;28;20038;-50
2023/03/22 01:47:47;;;;;;;0.10;0.10;;;12.40;99.90;;;;;;5029640;28;20025;-53
2023/03/22 01:50:15;;;;;;;0.30;0.30;;;12.40;99.90;;;;;;5026817;28;20030;-53
2023/03/22 01:52:41;;;;;;;3.40;0.43;;;12.40;99.90;;;;;;5030628;28;20038;-50
2023/03/22 01:55:08;;;;;;;0.20;0.20;;;12.40;99.90;;;;;;5033843;28;20025;-53
2023/03/22 01:57:38;;;;;;;0.15;0.15;;;12.40;99.90;;;;;;5034321;28;20029;-51
2023/03/22 02:00:14;;;;;;;0.10;0.10;;;12.50;99.90;;;;;;5034954;28;20115;-54
2023/03/22 02:02:45;;;;;;;0.20;0.20;;;12.50;99.90;;;;;;5025612;28;20137;-53
2023/03/22 02:05:11;;;;;;;0.22;0.22;;;12.50;99.90;;;;;;5033127;28;20038;-52
2023/03/22 02:07:40;;;;;;;0.10;0.10;;;12.50;99.90;;;;;;5029324;28;20382;-52
2023/03/22 02:10:23;;;;;;;0.13;0.13;;;12.50;99.90;;;;;;5032756;28;20539;-53
2023/03/22 02:13:10;;;;;;;0.00;0.00;;;12.50;99.90;;;;;;5034269;28;20033;-54
2023/03/22 02:15:59;;;;;;;0.20;0.20;;;12.50;99.90;;;;;;5029574;28;20504;-54
2023/03/22 02:19:07;;;;;;;0.20;0.20;;;12.60;99.90;;;;;;5025665;28;20076;-51
2023/03/22 02:22:24;;;;;;;0.22;0.22;;;12.60;99.90;;;;;;5038246;28;20045;-52
2023/03/22 02:25:22;;;;;;;0.17;0.17;;;12.60;99.90;;;;;;5032865;28;20093;-53
2023/03/22 02:28:08;;;;;;;0.10;0.10;;;12.50;99.90;;;;;;5009101;28;20571;-55
2023/03/22 02:30:45;;;;;;;0.05;0.05;;;12.50;99.90;;;;;;5019177;28;20041;-52
2023/03/22 02:33:43;;;;;;;0.10;0.10;;;12.50;99.90;;;;;;5031115;28;20037;-54
2023/03/22 02:36:39;;;;;;;0.32;0.32;;;12.50;99.90;;;;;;5032627;28;20041;-54
2023/03/22 02:39:16;;;;;;;0.20;0.20;;;12.50;99.90;;;;;;5032674;28;20041;-53
2023/03/22 02:42:07;;;;;;;0.10;0.10;;;12.40;99.90;;;;;;4999364;28;20037;-53
2023/03/22 02:44:55;;;;;;;0.10;0.10;;;12.40;99.90;;;;;;5031978;28;20446;-54
2023/03/22 02:47:20;;;;;;;0.40;0.30;;;12.30;99.90;;;;;;5032053;28;20921;-55
2023/03/22 02:49:54;;;;;;;0.20;0.20;;;12.30;99.90;;;;;;5032226;28;20092;-52
2023/03/22 02:52:26;;;;;;;0.80;0.35;;;12.30;99.90;;;;;;5032096;28;20032;-52
2023/03/22 02:55:06;;;;;;;0.13;0.13;;;12.30;99.90;;;;;;4998717;28;20029;-54
2023/03/22 02:57:53;;;;;;;0.20;0.20;;;12.30;99.90;;;;;;4974051;28;20557;-56
2023/03/22 03:00:18;;;;;;;0.10;0.10;;;12.40;99.90;;;;;;4978541;28;20061;-53
2023/03/22 03:02:55;;;;;;;0.25;0.25;;;12.40;99.90;;;;;;4992850;28;20042;-55
2023/03/22 03:05:23;;;;;;;0.10;0.10;;;12.40;99.90;;;;;;4989789;28;20162;-55
2023/03/22 03:07:53;;;;;;;0.20;0.20;;;12.40;99.90;;;;;;4992550;28;20029;-57
2023/03/22 03:10:20;;;;;;;0.30;0.30;;;12.40;99.90;;;;;;5008924;28;20038;-51
2023/03/22 03:12:46;;;;;;;0.10;0.10;;;12.40;99.90;;;;;;4992878;28;20034;-54
2023/03/22 03:15:16;;;;;;;0.30;0.30;;;12.40;99.90;;;;;;4992281;28;20034;-55
2023/03/22 03:18:02;;;;;;;0.10;0.10;;;12.40;99.90;;;;;;4991285;28;20727;-54
2023/03/22 03:20:43;;;;;;;0.13;0.13;;;12.40;99.90;;;;;;4990707;28;20046;-53
2023/03/22 03:23:27;;;;;;;0.00;0.00;;;12.40;99.90;;;;;;4990521;28;20058;-52
2023/03/22 03:26:17;;;;;;;0.30;0.30;;;12.30;99.90;;;;;;4992477;28;20458;-54
2023/03/22 03:28:56;;;;;;;0.47;0.47;;;12.30;99.90;;;;;;4992690;28;20478;-56
2023/03/22 03:31:36;;;;;;;0.13;0.13;;;12.30;99.90;;;;;;4992271;28;20046;-51
2023/03/22 03:34:44;;;;;;;0.40;0.40;;;12.40;99.90;;;;;;4994207;28;20026;-53
2023/03/22 03:37:34;;;;;;;0.30;0.30;;;12.40;99.90;;;;;;5030990;28;20472;-54
2023/03/22 03:40:42;;;;;;;0.20;0.20;;;12.40;99.90;;;;;;5028615;28;20040;-53
2023/03/22 03:43:08;;;;;;;0.10;0.10;;;12.30;99.90;;;;;;5029635;28;20099;-56
2023/03/22 03:45:36;;;;;;;0.10;0.10;;;12.20;99.90;;;;;;5023775;28;20049;-52
2023/03/22 03:48:05;;;;;;;0.10;0.10;;;12.20;99.90;;;;;;5023510;28;20087;-53
2023/03/22 03:50:31;;;;;;;0.30;0.30;;;12.10;99.90;;;;;;5031704;28;20073;-55
2023/03/22 03:52:57;;;;;;;0.20;0.20;;;12.10;99.90;;;;;;5029985;28;20057;-54
2023/03/22 03:55:25;;;;;;;0.10;0.10;;;12.10;99.90;;;;;;5025040;28;20018;-52
2023/03/22 03:57:50;;;;;;;0.10;0.10;;;12.10;99.90;;;;;;5024600;28;20385;-51
2023/03/22 04:00:17;;;;;;;0.20;0.20;;;12.10;99.90;;;;;;5029541;28;20036;-51
2023/03/22 04:02:43;;;;;;;0.10;0.10;;;12.10;99.90;;;;;;5028304;28;20050;-52
2023/03/22 04:05:10;;;;;;;0.10;0.10;;;12.20;99.90;;;;;;5025628;28;20025;-51
2023/03/22 04:07:36;;;;;;;0.35;0.35;;;12.20;99.90;;;;;;5019466;28;20165;-55
2023/03/22 04:10:03;;;;;;;0.10;0.10;;;12.20;99.90;;;;;;5024641;28;20033;-52
2023/03/22 04:12:29;;;;;;;0.10;0.10;;;12.20;99.90;;;;;;5030211;28;20030;-56
2023/03/22 04:14:55;;;;;;;0.25;0.25;;;12.20;99.90;;;;;;5027259;28;20033;-54
2023/03/22 04:17:21;;;;;;;0.13;0.13;;;12.20;99.90;;;;;;5045540;28;20034;-55
2023/03/22 04:19:48;;;;;;;0.38;0.20;;;12.10;99.90;;;;;;5032633;28;20455;-55
2023/03/22 04:22:17;;;;;;;0.10;0.10;;;12.10;99.90;;;;;;5028160;28;20049;-55
2023/03/22 04:24:48;;;;;;;0.20;0.20;;;12.10;99.90;;;;;;5019992;28;20026;-54
2023/03/22 04:27:19;;;;;;;0.20;0.20;;;12.10;99.90;;;;;;5023926;28;20050;-51
2023/03/22 04:29:49;;;;;;;0.13;0.13;;;12.20;99.90;;;;;;5031686;28;20029;-54
2023/03/22 04:32:17;;;;;;;0.20;0.20;;;12.10;99.90;;;;;;5041788;28;20037;-52
2023/03/22 04:34:44;;;;;;;0.10;0.10;;;12.10;99.90;;;;;;5023661;28;20091;-52
2023/03/22 04:37:10;;;;;;;0.20;0.20;;;12.10;99.90;;;;;;5046538;28;20033;-53
2023/03/22 04:39:35;;;;;;;0.40;0.25;;;12.10;99.90;;;;;;5023070;28;20049;-55
2023/03/22 04:42:01;;;;;;;0.40;0.40;;;12.10;99.90;;;;;;5025719;28;20060;-53
2023/03/22 04:44:27;;;;;;;0.13;0.13;;;12.10;99.90;;;;;;5030976;28;20041;-52
2023/03/22 04:46:53;;;;;;;0.30;0.30;;;12.00;99.90;;;;;;5021532;28;20497;-54
2023/03/22 04:49:19;;;;;;;0.20;0.20;;;12.00;99.90;;;;;;5025379;28;20049;-54
2023/03/22 04:51:45;;;;;;;0.35;0.35;;;11.90;99.90;;;;;;5028778;28;20037;-51
2023/03/22 04:54:10;;;;;;;0.10;0.10;;;11.90;99.90;;;;;;5024949;28;20037;-55
2023/03/22 04:56:36;;;;;;;0.15;0.15;;;11.80;99.90;;;;;;5030422;28;20473;-55
2023/03/22 04:59:02;;;;;;;0.30;0.30;;;11.80;99.90;;;;;;5047468;28;20040;-57
2023/03/22 05:01:27;;;;;;;0.10;0.10;;;11.80;99.90;;;;;;5030245;28;20137;-55
2023/03/22 05:03:53;;;;;;;0.47;0.45;;;11.80;99.90;;;;;;5032784;28;20468;-52
2023/03/22 05:06:19;;;;;;;0.28;0.28;;;11.80;99.90;;;;;;5029895;28;20030;-55
2023/03/22 05:08:45;;;;;;;0.43;0.32;;;11.80;99.90;;;;;;5024564;28;20029;-53
2023/03/22 05:11:13;;;;;;;0.57;0.50;;;11.80;99.90;;;;;;5017584;28;20442;-52
2023/03/22 05:13:39;;;;;;;0.10;0.10;;;11.80;99.90;;;;;;5029046;28;20470;-56
2023/03/22 05:16:06;;;;;;;0.10;0.10;;;11.90;99.90;;;;;;5026439;28;20113;-53
2023/03/22 05:18:32;;;;;;;0.55;0.40;;;11.90;99.90;;;;;;5023960;28;20025;-51
2023/03/22 05:20:59;;;;;;;0.20;0.20;;;11.90;99.90;;;;;;5031194;28;20530;-56
2023/03/22 05:23:26;;;;;;;0.10;0.10;;;11.90;99.90;;;;;;5029298;28;20050;-53
2023/03/22 05:25:53;;;;;;;0.20;0.20;;;11.90;99.90;;;;;;5027332;28;20033;-51
2023/03/22 05:28:20;;;;;;;0.50;0.43;;;11.90;99.90;;;;;;5028328;28;20115;-54
2023/03/22 05:30:47;;;;;;;0.35;0.32;;;11.90;99.90;;;;;;5024964;28;20034;-52
2023/03/22 05:33:13;;;;;;;0.10;0.10;;;11.90;99.90;;;;;;5030680;28;20103;-52
2023/03/22 05:35:40;;;;;;;0.10;0.10;;;11.90;99.90;;;;;;5013700;28;20032;-55
2023/03/22 05:38:07;;;;;;;0.20;0.20;;;11.90;99.90;;;;;;5029908;28;20038;-55
2023/03/22 05:40:33;;;;;;;0.20;0.20;;;11.90;99.90;;;;;;5020696;28;20030;-52
2023/03/22 05:42:59;;;;;;;0.10;0.10;;;11.90;99.90;;;;;;5031119;28;20034;-54
2023/03/22 05:45:25;;;;;;;0.20;0.20;;;11.90;99.90;;;;;;5029084;28;20025;-56
2023/03/22 05:47:52;;;;;;;1.10;0.85;;;12.00;99.90;;;;;;5025385;28;20037;-53
2023/03/22 05:50:20;;;;;;;0.10;0.10;;;12.00;99.90;;;;;;5031480;28;20474;-57
2023/03/22 05:52:47;;;;;;;0.10;0.10;;;12.00;99.90;;;;;;5028541;28;20034;-55
2023/03/22 05:55:16;;;;;;;0.20;0.20;;;12.10;99.90;;;;;;5027470;28;20021;-55
2023/03/22 05:57:43;;;;;;;0.20;0.20;;;12.20;99.90;;;;;;5011605;28;20038;-53
2023/03/22 06:00:15;;;;;;;0.28;0.28;;;12.30;99.90;;;;;;5029963;28;20087;-53
2023/03/22 06:02:46;;;;;;;0.10;0.10;;;12.30;99.90;;;;;;5041757;28;20474;-53
2023/03/22 06:05:14;;;;;;;0.10;0.10;;;12.40;99.90;;;;;;5022117;28;20562;-52
2023/03/22 06:07:40;;;;;;;0.22;0.22;;;12.40;99.90;;;;;;5026943;28;20022;-53
2023/03/22 06:10:08;;;;;;;0.10;0.10;;;12.50;99.90;;;;;;5026223;28;20068;-55
2023/03/22 06:12:34;;;;;;;0.35;0.35;;;12.40;99.90;;;;;;5046574;28;20072;-54
2023/03/22 06:15:00;;;;;;;0.20;0.20;;;12.40;99.90;;;;;;5029481;28;20042;-54
2023/03/22 06:17:26;;;;;;;0.20;0.20;;;12.50;99.90;;;;;;5032828;28;20490;-56
2023/03/22 06:19:53;;;;;;;0.20;0.20;;;12.50;99.90;;;;;;5030571;28;20373;-53
2023/03/22 06:22:19;;;;;;;0.13;0.13;;;12.60;99.90;;;;;;5015897;28;20096;-56
2023/03/22 06:24:45;;;;;;;0.22;0.20;;;12.60;99.90;;;;;;5017548;28;20083;-53
2023/03/22 06:27:11;;;;;;;0.20;0.20;;;12.70;99.90;;;;;;5024752;28;20037;-54
2023/03/22 06:29:36;;;;;;;0.35;0.35;;;12.80;99.90;;;;;;5032361;28;20036;-52
2023/03/22 06:32:03;;;;;;;0.30;0.20;;;12.80;99.90;;;;;;5048211;28;20112;-55
2023/03/22 06:34:28;;;;;;;0.22;0.22;;;13.00;99.90;;;;;;5021970;28;20037;-55
2023/03/22 06:36:54;;;;;;;0.40;0.40;;;13.10;99.90;;;;;;5033341;28;20028;-54
2023/03/22 06:39:20;;;;;;;0.20;0.20;;;13.20;99.90;;;;;;5026372;28;20409;-52
2023/03/22 06:41:47;;;;;;;0.20;0.20;;;13.30;99.90;;;;;;5028837;28;20477;-56
2023/03/22 06:44:13;;;;;;;0.38;0.38;;;13.40;99.90;;;;;;5032558;28;20033;-56
2023/03/22 06:46:39;;;;;;;0.30;0.30;;;13.60;99.90;;;;;;5028103;28;20033;-55
2023/03/22 06:49:05;;;;;;;0.10;0.10;;;13.70;99.90;;;;;;5031053;28;20481;-54
2023/03/22 06:51:31;;;;;;;0.40;0.40;;;13.70;99.90;;;;;;5031201;28;20034;-53
2023/03/22 06:53:57;;;;;;;0.22;0.22;;;13.80;99.90;;;;;;5030084;28;20036;-55
2023/03/22 06:56:23;;;;;;;0.28;0.28;;;13.80;99.90;;;;;;5026722;28;20057;-53
2023/03/22 06:58:50;;;;;;;0.50;0.50;;;13.80;99.90;;;;;;5018130;28;20111;-54
2023/03/22 07:01:17;;;;;;;0.40;0.40;;;13.90;99.90;;;;;;5026366;28;20061;-55
2023/03/22 07:03:44;;;;;;;0.30;0.30;;;14.00;99.90;;;;;;5027194;28;20045;-57
2023/03/22 07:06:10;;;;;;;0.10;0.10;;;14.00;99.90;;;;;;5031467;28;20025;-54
2023/03/22 07:08:36;;;;;;;0.25;0.25;;;14.20;99.90;;;;;;5027236;28;20021;-54
2023/03/22 07:11:03;;;;;;;0.15;0.15;;;14.20;99.90;;;;;;5022506;28;20394;-52
2023/03/22 07:13:29;;;;;;;0.20;0.20;;;14.50;99.90;;;;;;5020319;28;20029;-54
2023/03/22 07:15:56;;;;;;;0.75;0.30;;;14.70;99.90;;;;;;5023136;28;20057;-56
2023/03/22 07:18:22;;;;;;;0.63;0.63;;;14.70;99.90;;;;;;5031204;28;20030;-54
2023/03/22 07:20:47;;;;;;;0.20;0.20;;;14.90;99.90;;;;;;5047948;28;20045;-53
2023/03/22 07:24:25;;;;;;;0.40;0.40;;;15.00;99.90;;;;;;5054348;28;20122;-55
2023/03/22 07:26:51;;;;;;;0.08;0.08;;;14.90;99.90;;;;;;5058229;28;20037;-56
2023/03/22 07:29:17;;;;;;;0.10;0.10;;;15.00;99.90;;;;;;5041073;28;20029;-54
2023/03/22 07:31:44;;;;;;;0.20;0.20;;;15.20;99.90;;;;;;5042569;28;20440;-57
2023/03/22 07:34:10;;;;;;;0.20;0.20;;;15.50;99.90;;;;;;5037760;28;20022;-56
2023/03/22 07:36:37;;;;;;;0.20;0.20;;;15.60;99.90;;;;;;5055929;28;20037;-55
2023/03/22 07:39:04;;;;;;;0.13;0.13;;;15.80;99.90;;;;;;5042948;28;20037;-52
2023/03/22 07:41:30;;;;;;;0.05;0.05;;;16.10;99.90;;;;;;5044054;28;20500;-54
2023/03/22 07:43:56;;;;;;;0.10;0.10;;;16.10;99.90;;;;;;5042147;28;20042;-56
2023/03/22 07:46:22;;;;;;;0.10;0.10;;;;;;;;;;5041192;28;20037;-56
2023/03/22 07:48:48;;;;;;;0.45;0.45;;;16.60;99.90;;;;;;5035686;28;20496;-55
2023/03/22 07:51:14;;;;;;;0.05;0.05;;;;;;;;;;5038685;28;20061;-55
2023/03/22 07:53:40;;;;;;;0.20;0.20;;;;;;;;;;5037668;28;20041;-55
2023/03/22 07:56:06;;;;;;;0.10;0.10;;;17.60;99.90;;;;;;5040583;28;20021;-53
2023/03/22 07:58:32;;;;;;;0.00;0.00;;;17.60;99.90;;;;;;5038946;28;20044;-55
2023/03/22 08:01:03;;;;;;;0.10;0.10;;;17.80;99.90;;;;;;5041849;28;20017;-56
2023/03/22 08:03:29;;;;;;;0.10;0.10;;;;;;;;;;5037193;28;20040;-54
2023/03/22 08:05:57;;;;;;;0.30;0.30;;;18.50;99.90;;;;;;5039263;28;20064;-53
2023/03/22 08:08:23;;;;;;;0.43;0.43;;;18.10;99.90;;;;;;5031631;28;20092;-51
2023/03/22 08:10:50;;;;;;;0.10;0.10;;;18.30;99.90;;;;;;5038836;28;20030;-52
2023/03/22 08:13:16;;;;;;;0.70;0.70;;;18.30;99.90;;;;;;5044603;28;20036;-51
2023/03/22 08:15:42;;;;;;;0.17;0.08;;;18.10;99.90;;;;;;5045073;28;20124;-53
2023/03/22 08:18:07;;;;;;;0.30;0.30;;;18.40;99.90;;;;;;5064806;28;20034;-53
2023/03/22 08:20:33;;;;;;;0.10;0.10;;;18.80;99.90;;;;;;5057377;28;20040;-52
2023/03/22 08:23:00;;;;;;;0.10;0.10;;;;;;;;;;5037175;28;20061;-53
2023/03/22 08:25:26;;;;;;;0.30;0.30;;;;;;;;;;5042365;28;20128;-53
2023/03/22 08:27:52;;;;;;;0.50;0.50;;;;;;;;;;5035086;28;20036;-52
2023/03/22 08:30:18;;;;;;;0.28;0.28;;;;;;;;;;5033991;28;20487;-53
2023/03/22 08:32:46;;;;;;;0.10;0.10;;;19.20;99.90;;;;;;5042634;28;20053;-52
2023/03/22 08:35:12;;;;;;;0.20;0.20;;;19.20;99.90;;;;;;5045093;28;20037;-53
2023/03/22 08:37:38;;;;;;;0.20;0.20;;;19.70;99.90;;;;;;5016548;28;20049;-53
2023/03/22 08:40:07;;;;;;;0.17;0.17;;;;;;;;;;5021717;28;20065;-56
2023/03/22 08:42:33;;;;;;;0.00;0.00;;;;;;;;;;5045508;28;20401;-54
2023/03/22 08:44:59;;;;;;;0.10;0.10;;;20.10;98.70;;;;;;5025698;28;20027;-53
2023/03/22 08:47:25;;;;;;;0.20;0.20;;;;;;;;;;5039280;28;20396;-54
2023/03/22 08:49:51;;;;;;;0.15;0.10;;;;;;;;;;5032356;28;20037;-53
2023/03/22 08:52:17;;;;;;;0.20;0.20;;;20.90;99.90;;;;;;5028123;28;20037;-54
2023/03/22 08:54:43;;;;;;;0.20;0.20;;;;;;;;;;5042884;28;20045;-51
2023/03/22 08:57:10;;;;;;;0.30;0.30;;;;;;;;;;5025885;28;20053;-50
2023/03/22 08:59:35;;;;;;;0.10;0.10;;;21.50;98.50;;;;;;5051630;28;20099;-51
2023/03/22 09:02:01;;;;;;;0.43;0.30;;;21.30;97.00;;;;;;5023995;28;20428;-51
2023/03/22 09:04:27;;;;;;;0.40;0.40;;;21.60;97.00;;;;;;5019931;28;20021;-51
2023/03/22 09:06:53;;;;;;;0.10;0.10;;;21.60;95.70;;;;;;5027847;28;20068;-52
2023/03/22 09:09:18;;;;;;;0.00;0.00;;;21.60;96.10;;;;;;5026188;28;20029;-51
2023/03/22 09:11:45;;;;;;;0.30;0.30;;;;;;;;;;5026093;28;20116;-52
2023/03/22 09:14:10;;;;;;;0.13;0.13;;;22.00;95.30;;;;;;5028439;28;20095;-52
2023/03/22 09:16:36;;;;;;;0.05;0.05;;;21.80;95.60;;;;;;5028077;28;20457;-51
2023/03/22 09:19:02;;;;;;;0.47;0.47;;;22.10;94.80;;;;;;5044552;28;20041;-52
2023/03/22 09:21:28;;;;;;;0.13;0.13;;;;;;;;;;5029314;28;20036;-51
2023/03/22 09:23:55;;;;;;;0.08;0.08;;;;;;;;;;5032364;28;20195;-51
2023/03/22 09:26:21;;;;;;;0.10;0.10;;;22.50;99.90;;;;;;5032713;28;20034;-51
2023/03/22 09:28:47;;;;;;;0.20;0.20;;;22.20;94.70;;;;;;5032355;28;20476;-51
2023/03/22 09:31:13;;;;;;;0.57;0.57;;;22.50;94.30;;;;;;5029094;28;20037;-51
2023/03/22 09:33:40;;;;;;;0.10;0.10;;;;;;;;;;5027633;28;20026;-52
2023/03/22 09:36:07;;;;;;;0.47;0.47;;;23.40;99.90;;;;;;5027261;28;20033;-52
2023/03/22 09:38:34;;;;;;;0.40;0.40;;;;;;;;;;5040085;28;20087;-51
2023/03/22 09:41:06;;;;;;;0.80;0.52;;;;;;;;;;5026908;28;20026;-51
2023/03/22 09:43:41;;;;;;;0.00;0.00;;;;;;;;;;5022782;28;20033;-51
2023/03/22 09:46:13;;;;;;;0.22;0.22;;;24.40;99.90;;;;;;5039057;28;20045;-52
2023/03/22 09:48:41;;;;;;;0.10;0.10;;;;;;;;;;5029261;28;20072;-52
2023/03/22 09:51:30;;;;;;;0.20;0.20;;;24.40;91.80;;;;;;5059090;28;20525;-52
2023/03/22 09:53:56;;;;;;;0.30;0.30;;;;;;;;;;5020551;28;20022;-53
2023/03/22 09:56:25;;;;;;;1.08;0.40;;;;;;;;;;5028002;28;20162;-51
2023/03/22 09:58:54;;;;;;;0.30;0.30;;;24.80;91.60;;;;;;5028469;28;20170;-50
2023/03/22 10:01:38;;;;;;;0.43;0.20;;;24.10;90.30;;;;;;5031405;28;20033;-51
2023/03/22 10:04:04;;;;;;;0.45;0.30;;;;;;;;;;5030557;28;20470;-52
2023/03/22 10:06:30;;;;;;;0.10;0.10;;;;;;;;;;5027211;28;20104;-51
2023/03/22 10:09:13;;;;;;;0.20;0.20;;;25.30;90.10;;;;;;5025252;28;20101;-51
2023/03/22 10:11:41;;;;;;;0.35;0.35;;;25.10;89.10;;;;;;5022606;28;20365;-52
2023/03/22 10:14:31;;;;;;;0.25;0.22;;;24.70;89.10;;;;;;5031362;28;20052;-52
2023/03/22 10:16:59;;;;;;;0.20;0.20;;;;;;;;;;5029133;28;20053;-52
2023/03/22 10:19:35;;;;;;;0.43;0.30;;;24.40;88.70;;;;;;5069008;28;20069;-50
2023/03/22 10:22:04;;;;;;;0.20;0.20;;;;;;;;;;5014539;28;20026;-53
2023/03/22 10:24:34;;;;;;;0.30;0.30;;;25.50;99.90;;;;;;5004785;28;20053;-53
2023/03/22 10:27:00;;;;;;;0.20;0.20;;;;;;;;;;5044823;28;20040;-51
2023/03/22 10:29:27;;;;;;;0.10;0.10;;;;;;;;;;5042895;28;20400;-51
2023/03/22 10:31:53;;;;;;;0.20;0.20;;;;;;;;;;5023790;28;20037;-52
2023/03/22 10:34:28;;;;;;;0.20;0.20;;;;;;;;;;5018788;28;20549;-52
2023/03/22 10:36:54;;;;;;;0.57;0.57;;;26.20;86.60;;;;;;5043866;28;20496;-53
2023/03/22 10:39:31;;;;;;;0.30;0.30;;;;;;;;;;5041200;28;20041;-52
2023/03/22 10:41:59;;;;;;;0.30;0.30;;;;;;;;;;5043312;28;20056;-53
2023/03/22 10:44:26;;;;;;;0.10;0.10;;;;;;;;;;5047761;28;20045;-51
2023/03/22 10:46:53;;;;;;;0.20;0.20;;;;;;;;;;5037659;28;20145;-53
2023/03/22 10:49:31;;;;;;;0.20;0.20;;;;;;;;;;5042941;28;20048;-53
2023/03/22 10:52:03;;;;;;;0.20;0.20;;;25.50;83.10;;;;;;5040195;28;20044;-51
2023/03/22 10:54:29;;;;;;;1.00;0.45;;;26.20;84.90;;;;;;5041583;28;20168;-51
2023/03/22 10:56:56;;;;;;;0.20;0.20;;;;;;;;;;5026828;28;20110;-51
2023/03/22 10:59:41;;;;;;;0.10;0.10;;;;;;;;;;5023462;28;20030;-52
2023/03/22 11:02:23;;;;;;;0.28;0.28;;;27.40;81.50;;;;;;5027300;28;20129;-52
2023/03/22 11:04:55;;;;;;;0.10;0.10;;;27.40;81.80;;;;;;5018166;28;20037;-51
2023/03/22 11:07:38;;;;;;;2.65;0.77;;;;;;;;;;5024124;28;20124;-52
2023/03/22 11:10:10;;;;;;;0.20;0.20;;;;;;;;;;5028088;28;20036;-53
2023/03/22 11:12:39;;;;;;;0.30;0.30;;;28.30;80.80;;;;;;5023683;28;20044;-52
2023/03/22 11:15:06;;;;;;;0.20;0.20;;;27.40;79.50;;;;;;5007827;28;20045;-53
2023/03/22 11:17:36;;;;;;;0.47;0.47;;;26.50;80.70;;;;;;5034623;28;20124;-53
2023/03/22 11:20:08;;;;;;;0.20;0.20;;;26.30;79.80;;;;;;5026758;28;20440;-51
2023/03/22 11:22:38;;;;;;;0.17;0.17;;;26.40;81.00;;;;;;5043428;28;20054;-52
2023/03/22 11:25:27;;;;;;;0.20;0.20;;;;;;;;;;5027472;28;20381;-51
2023/03/22 11:28:04;;;;;;;0.57;0.57;;;27.10;78.10;;;;;;4992704;28;20085;-51
2023/03/22 11:30:32;;;;;;;0.10;0.10;;;26.50;81.00;;;;;;4991603;28;20035;-52
2023/03/22 11:33:06;;;;;;;0.17;0.17;;;26.80;78.60;;;;;;4991178;28;20035;-53
2023/03/22 11:35:35;;;;;;;0.10;0.10;;;27.00;79.20;;;;;;4957809;28;20074;-50
2023/03/22 11:38:01;;;;;;;0.17;0.17;;;27.20;77.90;;;;;;4974609;28;20043;-53
2023/03/22 11:40:30;;;;;;;0.52;0.20;;;27.60;77.10;;;;;;5003011;28;20037;-52
2023/03/22 11:43:21;;;;;;;0.20;0.20;;;26.90;77.50;;;;;;4998423;28;20073;-51
2023/03/22 11:45:52;;;;;;;0.43;0.43;;;27.00;78.40;;;;;;4989126;28;20046;-53
2023/03/22 11:48:20;;;;;;;0.20;0.20;;;;;;;;;;5001343;28;20483;-53
2023/03/22 11:50:46;;;;;;;0.20;0.15;;;25.90;79.40;;;;;;4977866;28;20426;-52
2023/03/22 11:53:19;;;;;;;0.43;0.43;;;26.30;81.10;;;;;;4996380;28;20478;-51
2023/03/22 11:55:48;;;;;;;0.20;0.20;;;26.60;80.10;;;;;;4998606;28;20405;-52
2023/03/22 11:58:43;;;;;;;0.15;0.15;;;26.80;79.20;;;;;;4999852;28;20038;-52
2023/03/22 12:01:22;;;;;;;0.52;0.52;;;25.80;78.10;;;;;;4940712;29;20049;-53
2023/03/22 12:03:50;;;;;;;0.30;0.30;;;;;;;;;;4933555;29;20064;-53
2023/03/22 12:06:30;;;;;;;0.45;0.20;;;26.20;75.60;;;;;;4960107;28;20047;-50
2023/03/22 12:09:38;;;;;;;0.38;0.38;;;26.30;75.90;;;;;;4970595;28;20047;-52
2023/03/22 12:12:10;;;;;;;0.00;0.00;;;26.80;76.10;;;;;;4941797;29;20124;-53
2023/03/22 12:15:06;;;;;;;0.20;0.10;;;26.80;76.30;;;;;;4944578;29;20507;-52
2023/03/22 12:17:39;;;;;;;0.10;0.10;;;25.90;76.70;;;;;;4939634;29;20110;-51
2023/03/22 12:20:11;;;;;;;0.20;0.20;;;;;;;;;;4939056;29;20164;-53
2023/03/22 12:22:42;;;;;;;0.10;0.10;;;;;;;;;;4942102;29;20452;-51
2023/03/22 12:25:16;;;;;;;0.03;0.03;;;24.60;75.00;;;;;;4937359;29;20098;-52
2023/03/22 12:27:51;;;;;;;0.10;0.10;;;24.80;76.10;;;;;;4943573;29;20031;-51
2023/03/22 12:30:19;;;;;;;0.20;0.20;;;24.80;76.40;;;;;;4943493;29;20055;-52
2023/03/22 12:33:08;;;;;;;0.10;0.10;;;24.60;77.10;;;;;;4945195;29;20035;-52
2023/03/22 12:35:35;;;;;;;0.10;0.10;;;;;;;;;;4936236;29;20146;-52
2023/03/22 12:38:26;;;;;;;0.20;0.20;;;24.70;76.00;;;;;;4956622;28;20046;-52
2023/03/22 12:40:54;;;;;;;0.00;0.00;;;25.20;79.50;;;;;;4973552;28;20123;-52
2023/03/22 12:43:37;;;;;;;0.10;0.10;;;25.40;77.70;;;;;;4981920;28;20453;-52
2023/03/22 12:46:05;;;;;;;0.10;0.10;;;25.10;75.10;;;;;;4971993;28;20477;-52
2023/03/22 12:48:34;;;;;;;0.00;0.00;;;25.00;76.10;;;;;;5002387;28;20485;-52
2023/03/22 12:51:05;;;;;;;0.10;0.10;;;24.80;75.30;;;;;;5025528;28;20042;-51
2023/03/22 12:53:41;;;;;;;;;;;24.50;75.70;;;;;;5018327;28;20040;-53
2023/03/22 12:56:14;;;;;;;0.10;0.10;;;24.10;76.50;;;;;;5030658;28;20004;-53
2023/03/22 12:58:42;;;;;;;0.08;0.08;;;23.10;97.20;;;;;;5028217;28;20032;-50
2023/03/22 13:01:21;;;;;;;0.20;0.20;;;23.20;98.90;;;;;;5020917;28;20051;-52
2023/03/22 13:03:50;;;;;;;0.17;0.17;;;22.90;80.00;;;;;;5044669;28;20057;-52
2023/03/22 13:06:45;;;;;;;0.15;0.15;;;22.80;80.20;;;;;;5046020;28;20048;-52
2023/03/22 13:09:14;;;;;;;0.70;0.45;;;21.90;81.10;;;;;;5045554;28;20112;-53
2023/03/22 13:11:40;;;;;;;0.10;0.10;;;21.40;82.60;;;;;;5045968;28;20500;-52
2023/03/22 13:14:06;;;;;;;0.00;0.00;;;21.20;82.50;;;;;;5046367;28;20489;-52
2023/03/22 13:16:48;;;;;;;0.10;0.10;;;21.10;82.90;;;;;;5046958;28;20037;-51
2023/03/22 13:19:35;;;;;;;0.10;0.10;;;20.90;83.70;;;;;;5047665;28;20112;-53
2023/03/22 13:22:17;;;;;;;0.47;0.25;;;20.80;85.20;;;;;;5046151;28;20033;-53